This is the latest recevied weather packets stored in our database for station/object S51UL-6. If no packets are shown the sender has not sent any weather packets the latest 10 day(s).
| Time | Temp. | Humidity | Pressure | Rain* | Wind** | Luminosity | Snow |
|---|---|---|---|---|---|---|---|
| 1788091629 | 34.44° C | 40% | 1017.5 hPa | 0 mm | - | - | - |
| 1788091329 | 35° C | 41% | 1017.4 hPa | 0 mm | - | - | - |
| 1788091028 | 34.44° C | 42% | 1017.5 hPa | 0 mm | - | - | - |
| 1788090728 | 34.44° C | 40% | 1017.4 hPa | 0 mm | - | - | - |
| 1788090429 | 35° C | 40% | 1017.5 hPa | 0 mm | - | - | - |
| 1788089828 | 35° C | 40% | 1017.5 hPa | 0.51 mm | - | - | - |
| 1788089528 | 35° C | 39% | 1017.5 hPa | 0.51 mm | - | - | - |
| 1788088928 | 36.11° C | 39% | 1017.8 hPa | 0.51 mm | - | - | - |
| 1788088628 | 36.11° C | 41% | 1017.8 hPa | 0.51 mm | - | - | - |
| 1788088328 | 36.11° C | 41% | 1017.8 hPa | 0.51 mm | - | - | - |
| 1788087729 | 34.44° C | 45% | 1017.8 hPa | 0.51 mm | - | - | - |
| 1788087429 | 33.89° C | 46% | 1017.8 hPa | 0.51 mm | - | - | - |
| 1788087129 | 32.78° C | 47% | 1017.9 hPa | 0.51 mm | - | - | - |
| 1788086829 | 32.22° C | 47% | 1017.9 hPa | 0.51 mm | - | - | - |
| 1788086529 | 32.22° C | 47% | 1017.9 hPa | 0 mm | - | - | - |
| 1788085929 | 30.56° C | 50% | 1018 hPa | 0 mm | - | - | - |
| 1788085629 | 30° C | 51% | 1018 hPa | 0 mm | - | - | - |
| 1788085329 | 30° C | 51% | 1018 hPa | 0 mm | - | - | - |
| 1788085030 | 29.44° C | 50% | 1018.1 hPa | 0 mm | - | - | - |
| 1788084730 | 29.44° C | 51% | 1018.1 hPa | 0.51 mm | - | - | - |
| 1788084429 | 29.44° C | 52% | 1018.1 hPa | 0.51 mm | - | - | - |
| 1788084129 | 28.89° C | 53% | 1018.3 hPa | 2.03 mm | - | - | - |
| 1788083830 | 28.33° C | 53% | 1018.3 hPa | 2.03 mm | - | - | - |
| 1788083529 | 28.33° C | 53% | 1018.2 hPa | 2.03 mm | - | - | - |
| 1788083229 | 28.33° C | 54% | 1018.4 hPa | 2.03 mm | - | - | - |
* Rain latest hour (hover to see other rain measurements)
** Current wind speed in m/s (hover to see current wind gust speed)